This is the latest recevied weather packets stored in our database for station/object N0YWB. If no packets are shown the sender has not sent any weather packets the latest 10 day(s).
| Time | Temp. | Humidity | Pressure | Rain* | Wind** | Luminosity | Snow |
|---|---|---|---|---|---|---|---|
| 1777971342 | 8.33° C | 73% | 1011.2 hPa | 0 mm | - | - | - |
| 1777970745 | 8.33° C | 72% | 1011.6 hPa | 0 mm | - | - | - |
| 1777969530 | 8.89° C | 71% | 1010.2 hPa | 0 mm | - | - | - |
| 1777966525 | 9.44° C | 64% | 1009.5 hPa | 0 mm | - | - | - |
| 1777962924 | 10.56° C | 56% | 1009.2 hPa | 0 mm | - | - | - |
| 1777962341 | 10.56° C | 56% | 1008.7 hPa | 0 mm | - | - | - |
| 1777961133 | 11.11° C | 55% | 1008.6 hPa | 0 mm | - | - | - |
| 1777954525 | 13.89° C | 53% | 1008.1 hPa | 0 mm | - | - | - |
| 1777951560 | 13.89° C | 47% | 1007.3 hPa | 0 mm | - | - | - |
| 1777950325 | 13.89° C | 47% | 1007.3 hPa | 0 mm | - | - | - |
| 1777946146 | 16.11° C | 46% | 1005.4 hPa | 0 mm | - | - | - |
| 1777944335 | 17.22° C | 43% | 1004.3 hPa | 0 mm | - | - | - |
| 1777943718 | 17.78° C | 43% | 1004.1 hPa | 0 mm | - | - | - |
| 1777936531 | 23.89° C | 38% | 1001.9 hPa | 0 mm | - | - | - |
| 1777935915 | 25° C | 39% | 1001.8 hPa | 0 mm | - | - | - |
| 1777925718 | 25° C | 51% | 1001.3 hPa | 0.25 mm | - | - | - |
| 1777923328 | 27.22° C | 42% | 1001.7 hPa | 0 mm | - | - | - |
| 1777921539 | 27.78° C | 40% | 1001.9 hPa | 0 mm | - | - | - |
| 1777917917 | 27.78° C | 42% | 1002 hPa | 0 mm | - | - | - |
| 1777916722 | 27.78° C | 42% | 1002 hPa | 0 mm | - | - | - |
| 1777900528 | 14.44° C | 75% | 1004.7 hPa | 0 mm | - | - | - |
| 1777894518 | 5.56° C | 99% | 1005.2 hPa | 0 mm | - | - | - |
| 1777892128 | 5.56° C | 99% | 1005.2 hPa | 0 mm | - | - | - |
| 1777889720 | 6.11° C | 91% | 1005.8 hPa | 0 mm | - | - | - |
| 1777884943 | 6.11° C | 96% | 1006.6 hPa | 0 mm | - | - | - |
* Rain latest hour (hover to see other rain measurements)
** Current wind speed in m/s (hover to see current wind gust speed)